Anthony, West Virginia
Current Conditions -  °F | °C
As of 8:35 PM on Saturday 25 Oct 2014 (Local Time) from KLWB Reporting Station
Clear Clear  
Wind Chill: 59°   Ceiling: Unl
Heat Index: 59°   Visibility: 10mi
Dew Point: 46°   Wind: 7mph
Humidity: 61%   Direction: 240°WSW
Pressure: 29.92"   Gusts: NA
Location:  38.0307°N, 80.4756°W
Report Text: KLWB 260035Z AUTO 24006KT 10SM CLR 15/08 A2992 RMK AO2 T01500076
Loading
Personal Weather Stations






























Interactive Weather Map New forecast layout! Learn more

10-Day Weather Forecast

Advertisements
Track Severe Weather on mobile